CSC3279 ZSAM-ZPPP
Flight info
| Callsign | CSC3279 |
|---|---|
| Flight time | 2h 26m |
| Altitude | 36100 |
| Route | NUSPA9Z NUSPA W598 DABER W155 VETIB DCT XEBUL DCT MABAG DCT WYN G586 SJG B330 ELKAL W179 MASRO DCT MEVUL DCT LPS46 DCT XISLI XIS2L |
| Aircraft | A320/M-SDE3FGHIRWY/LB1 |
Departure
| Time | 2026-05-06 11:23 |
|---|---|
| Airport | Xiamen Gaoqi International Airport (ZSAM) |
Arrival
| Time | 2026-05-06 13:49 |
|---|---|
| Airport | Kunming Changshui International Airport (ZPPP) |
| Time | Latitude | Longitude | Altitude | Speed | Heading |
|---|---|---|---|---|---|
| 2026-05-06 11:13 | 24.53865 | 118.12689 | 45 ft | 0 kts | 142° |
| 2026-05-06 11:14 | 24.53885 | 118.12671 | 40 ft | 4 kts | 139° |
| 2026-05-06 11:14 | 24.53906 | 118.12654 | 42 ft | 4 kts | 161° |
| 2026-05-06 11:14 | 24.53929 | 118.12651 | 44 ft | 4 kts | 193° |
| 2026-05-06 11:15 | 24.53951 | 118.12664 | 40 ft | 4 kts | 231° |
| 2026-05-06 11:15 | 24.53964 | 118.12682 | 42 ft | 0 kts | 232° |
| 2026-05-06 11:19 | 24.53957 | 118.12672 | 45 ft | 4 kts | 232° |
| 2026-05-06 11:19 | 24.53922 | 118.12623 | 45 ft | 15 kts | 233° |
| 2026-05-06 11:19 | 24.53993 | 118.12508 | 43 ft | 26 kts | 314° |
| 2026-05-06 11:20 | 24.53962 | 118.12399 | 45 ft | 16 kts | 188° |
| 2026-05-06 11:20 | 24.53890 | 118.12325 | 45 ft | 19 kts | 279° |
| 2026-05-06 11:20 | 24.53817 | 118.12220 | 43 ft | 21 kts | 231° |
| 2026-05-06 11:20 | 24.53703 | 118.12060 | 43 ft | 30 kts | 231° |
| 2026-05-06 11:21 | 24.53554 | 118.11865 | 41 ft | 36 kts | 229° |
| 2026-05-06 11:21 | 24.53412 | 118.11665 | 45 ft | 24 kts | 237° |
| 2026-05-06 11:21 | 24.53424 | 118.11527 | 45 ft | 11 kts | 290° |
| 2026-05-06 11:21 | 24.53469 | 118.11479 | 45 ft | 9 kts | 354° |
| 2026-05-06 11:22 | 24.53515 | 118.11506 | 45 ft | 7 kts | 51° |
| 2026-05-06 11:22 | 24.53557 | 118.11564 | 45 ft | 30 kts | 52° |
| 2026-05-06 11:22 | 24.53850 | 118.11973 | 41 ft | 101 kts | 52° |
| 2026-05-06 11:22 | 24.54400 | 118.12746 | 43 ft | 154 kts | 52° |
| 2026-05-06 11:23 | 24.55113 | 118.13753 | 391 ft | 170 kts | 54° |
| 2026-05-06 11:23 | 24.55839 | 118.14787 | 1022 ft | 171 kts | 52° |
| 2026-05-06 11:23 | 24.56570 | 118.15810 | 1592 ft | 179 kts | 51° |
| 2026-05-06 11:23 | 24.57395 | 118.16960 | 1941 ft | 197 kts | 51° |
| 2026-05-06 11:24 | 24.58253 | 118.18156 | 2522 ft | 201 kts | 52° |
| 2026-05-06 11:24 | 24.59107 | 118.19350 | 3114 ft | 204 kts | 53° |
| 2026-05-06 11:24 | 24.59964 | 118.20618 | 3724 ft | 209 kts | 51° |
| 2026-05-06 11:24 | 24.60757 | 118.21671 | 4296 ft | 213 kts | 49° |
| 2026-05-06 11:25 | 24.61642 | 118.23014 | 4925 ft | 221 kts | 60° |
| 2026-05-06 11:25 | 24.62155 | 118.24623 | 5551 ft | 228 kts | 83° |
| 2026-05-06 11:25 | 24.62011 | 118.26358 | 6181 ft | 232 kts | 112° |
| 2026-05-06 11:25 | 24.61161 | 118.27857 | 6795 ft | 233 kts | 140° |
| 2026-05-06 11:26 | 24.59806 | 118.28782 | 7423 ft | 230 kts | 167° |
| 2026-05-06 11:26 | 24.58241 | 118.28971 | 8077 ft | 225 kts | 192° |
| 2026-05-06 11:26 | 24.56804 | 118.28438 | 8735 ft | 220 kts | 216° |
| 2026-05-06 11:26 | 24.55681 | 118.27299 | 9425 ft | 217 kts | 234° |
| 2026-05-06 11:27 | 24.54752 | 118.26009 | 10098 ft | 218 kts | 234° |
| 2026-05-06 11:27 | 24.53807 | 118.24704 | 10724 ft | 220 kts | 234° |
| 2026-05-06 11:27 | 24.52848 | 118.23384 | 11347 ft | 222 kts | 234° |
| 2026-05-06 11:27 | 24.51882 | 118.22058 | 11971 ft | 223 kts | 234° |
| 2026-05-06 11:28 | 24.50904 | 118.20716 | 12534 ft | 230 kts | 234° |
| 2026-05-06 11:28 | 24.49869 | 118.19264 | 12713 ft | 253 kts | 234° |
| 2026-05-06 11:28 | 24.48741 | 118.17667 | 12883 ft | 276 kts | 234° |
| 2026-05-06 11:28 | 24.47515 | 118.15927 | 13022 ft | 300 kts | 234° |
| 2026-05-06 11:29 | 24.46191 | 118.14048 | 13161 ft | 322 kts | 234° |
| 2026-05-06 11:29 | 24.44777 | 118.12045 | 13295 ft | 342 kts | 234° |
| 2026-05-06 11:29 | 24.43286 | 118.09940 | 13641 ft | 354 kts | 233° |
| 2026-05-06 11:29 | 24.41761 | 118.07795 | 14139 ft | 359 kts | 233° |
| 2026-05-06 11:30 | 24.40221 | 118.05637 | 14679 ft | 361 kts | 233° |
| 2026-05-06 11:30 | 24.38661 | 118.03456 | 15240 ft | 364 kts | 233° |
| 2026-05-06 11:30 | 24.37097 | 118.01268 | 15807 ft | 366 kts | 233° |
| 2026-05-06 11:30 | 24.35526 | 117.99063 | 16356 ft | 368 kts | 233° |
| 2026-05-06 11:31 | 24.33943 | 117.96840 | 16886 ft | 371 kts | 233° |
| 2026-05-06 11:31 | 24.32354 | 117.94610 | 17410 ft | 373 kts | 233° |
| 2026-05-06 11:31 | 24.30751 | 117.92357 | 17935 ft | 376 kts | 233° |
| 2026-05-06 11:31 | 24.29139 | 117.90090 | 18387 ft | 378 kts | 233° |
| 2026-05-06 11:32 | 24.27516 | 117.87812 | 18801 ft | 381 kts | 233° |
| 2026-05-06 11:32 | 24.25877 | 117.85517 | 19235 ft | 384 kts | 233° |
| 2026-05-06 11:32 | 24.24144 | 117.83284 | 19658 ft | 387 kts | 227° |
| 2026-05-06 11:32 | 24.22240 | 117.81238 | 20066 ft | 389 kts | 226° |
| 2026-05-06 11:33 | 24.20269 | 117.79126 | 20483 ft | 392 kts | 226° |
| 2026-05-06 11:33 | 24.18342 | 117.77061 | 20883 ft | 394 kts | 226° |
| 2026-05-06 11:33 | 24.16375 | 117.74951 | 21302 ft | 397 kts | 226° |
| 2026-05-06 11:33 | 24.14398 | 117.72830 | 21700 ft | 399 kts | 226° |
| 2026-05-06 11:34 | 24.12406 | 117.70697 | 22091 ft | 402 kts | 226° |
| 2026-05-06 11:34 | 24.10401 | 117.68551 | 22487 ft | 404 kts | 226° |
| 2026-05-06 11:34 | 24.08540 | 117.66249 | 22859 ft | 405 kts | 236° |
| 2026-05-06 11:34 | 24.07155 | 117.63571 | 23221 ft | 406 kts | 247° |
| 2026-05-06 11:35 | 24.06316 | 117.60615 | 23562 ft | 409 kts | 259° |
| 2026-05-06 11:35 | 24.06074 | 117.57519 | 23866 ft | 412 kts | 270° |
| 2026-05-06 11:35 | 24.06373 | 117.54394 | 24180 ft | 414 kts | 276° |
| 2026-05-06 11:35 | 24.06755 | 117.51261 | 24485 ft | 416 kts | 276° |
| 2026-05-06 11:36 | 24.07126 | 117.48121 | 24784 ft | 418 kts | 276° |
| 2026-05-06 11:36 | 24.07494 | 117.44959 | 25093 ft | 419 kts | 276° |
| 2026-05-06 11:36 | 24.07860 | 117.41789 | 25406 ft | 421 kts | 276° |
| 2026-05-06 11:36 | 24.08229 | 117.38614 | 25729 ft | 423 kts | 276° |
| 2026-05-06 11:37 | 24.08601 | 117.35413 | 26018 ft | 425 kts | 276° |
| 2026-05-06 11:37 | 24.08973 | 117.32208 | 26321 ft | 426 kts | 276° |
| 2026-05-06 11:37 | 24.09349 | 117.28980 | 26620 ft | 428 kts | 276° |
| 2026-05-06 11:37 | 24.09726 | 117.25742 | 26913 ft | 429 kts | 276° |
| 2026-05-06 11:38 | 24.10102 | 117.22503 | 27186 ft | 431 kts | 276° |
| 2026-05-06 11:38 | 24.10483 | 117.19240 | 27448 ft | 433 kts | 276° |
| 2026-05-06 11:38 | 24.10864 | 117.15963 | 27717 ft | 434 kts | 276° |
| 2026-05-06 11:38 | 24.11244 | 117.12683 | 27975 ft | 436 kts | 276° |
| 2026-05-06 11:39 | 24.11628 | 117.09379 | 28237 ft | 438 kts | 276° |
| 2026-05-06 11:39 | 24.12012 | 117.06062 | 28492 ft | 439 kts | 276° |
| 2026-05-06 11:39 | 24.12394 | 117.02748 | 28719 ft | 441 kts | 276° |
| 2026-05-06 11:39 | 24.12776 | 116.99412 | 29049 ft | 441 kts | 276° |
| 2026-05-06 11:40 | 24.13157 | 116.96094 | 29423 ft | 440 kts | 276° |
| 2026-05-06 11:40 | 24.13538 | 116.92771 | 29787 ft | 439 kts | 276° |
| 2026-05-06 11:40 | 24.13915 | 116.89454 | 30163 ft | 438 kts | 276° |
| 2026-05-06 11:40 | 24.14283 | 116.86158 | 30461 ft | 436 kts | 276° |
| 2026-05-06 11:41 | 24.14556 | 116.82846 | 30748 ft | 436 kts | 274° |
| 2026-05-06 11:41 | 24.14722 | 116.79533 | 31085 ft | 435 kts | 272° |
| 2026-05-06 11:41 | 24.14822 | 116.76238 | 31426 ft | 433 kts | 271° |
| 2026-05-06 11:41 | 24.14902 | 116.72943 | 31763 ft | 432 kts | 271° |
| 2026-05-06 11:42 | 24.14988 | 116.69700 | 32099 ft | 431 kts | 272° |
| 2026-05-06 11:42 | 24.15093 | 116.66391 | 32446 ft | 429 kts | 272° |
| 2026-05-06 11:42 | 24.15207 | 116.63169 | 32791 ft | 428 kts | 272° |
| 2026-05-06 11:42 | 24.15336 | 116.59925 | 33127 ft | 427 kts | 272° |
| 2026-05-06 11:43 | 24.15471 | 116.56680 | 33466 ft | 426 kts | 272° |
| 2026-05-06 11:43 | 24.15606 | 116.53443 | 33797 ft | 425 kts | 272° |
| 2026-05-06 11:43 | 24.15740 | 116.50224 | 34105 ft | 424 kts | 273° |
| 2026-05-06 11:44 | 24.15998 | 116.43795 | 34699 ft | 421 kts | 273° |
| 2026-05-06 11:44 | 24.16166 | 116.40605 | 34976 ft | 420 kts | 275° |
| 2026-05-06 11:44 | 24.16322 | 116.38443 | 35163 ft | 419 kts | 275° |
| 2026-05-06 11:44 | 24.16588 | 116.35315 | 35442 ft | 419 kts | 276° |
| 2026-05-06 11:45 | 24.16884 | 116.32144 | 35714 ft | 418 kts | 276° |
| 2026-05-06 11:45 | 24.17179 | 116.28990 | 35954 ft | 417 kts | 276° |
| 2026-05-06 11:45 | 24.17736 | 116.22665 | 36067 ft | 418 kts | 276° |
| 2026-05-06 11:46 | 24.18250 | 116.16313 | 36073 ft | 418 kts | 275° |
| 2026-05-06 11:46 | 24.18756 | 116.09963 | 36062 ft | 419 kts | 276° |
| 2026-05-06 11:47 | 24.19269 | 116.03608 | 36064 ft | 419 kts | 276° |
| 2026-05-06 11:47 | 24.19782 | 115.97242 | 36062 ft | 420 kts | 276° |
| 2026-05-06 11:48 | 24.20295 | 115.90857 | 36064 ft | 420 kts | 276° |
| 2026-05-06 11:48 | 24.20804 | 115.84482 | 36066 ft | 420 kts | 276° |
| 2026-05-06 11:49 | 24.21299 | 115.78104 | 36063 ft | 420 kts | 276° |
| 2026-05-06 11:49 | 24.21789 | 115.71724 | 36064 ft | 421 kts | 276° |
| 2026-05-06 11:50 | 24.22287 | 115.65335 | 36063 ft | 421 kts | 276° |
| 2026-05-06 11:50 | 24.22786 | 115.58978 | 36058 ft | 421 kts | 276° |
| 2026-05-06 11:51 | 24.23286 | 115.52586 | 36062 ft | 421 kts | 276° |
| 2026-05-06 11:51 | 24.23781 | 115.46190 | 36059 ft | 422 kts | 275° |
| 2026-05-06 11:52 | 24.24263 | 115.39787 | 36066 ft | 422 kts | 275° |
| 2026-05-06 11:52 | 24.24743 | 115.33367 | 36063 ft | 422 kts | 275° |
| 2026-05-06 11:53 | 24.25230 | 115.26951 | 36065 ft | 423 kts | 275° |
| 2026-05-06 11:53 | 24.25715 | 115.20531 | 36063 ft | 423 kts | 275° |
| 2026-05-06 11:54 | 24.26197 | 115.14105 | 36065 ft | 423 kts | 275° |
| 2026-05-06 11:54 | 24.26675 | 115.07665 | 36064 ft | 424 kts | 275° |
| 2026-05-06 11:55 | 24.27155 | 115.01229 | 36042 ft | 424 kts | 275° |
| 2026-05-06 11:55 | 24.27628 | 114.94781 | 36046 ft | 425 kts | 275° |
| 2026-05-06 11:56 | 24.28095 | 114.88312 | 36051 ft | 426 kts | 275° |
| 2026-05-06 11:56 | 24.28583 | 114.81832 | 36058 ft | 427 kts | 276° |
| 2026-05-06 11:57 | 24.29163 | 114.75339 | 36068 ft | 428 kts | 276° |
| 2026-05-06 11:57 | 24.29757 | 114.68852 | 36075 ft | 428 kts | 276° |
| 2026-05-06 11:58 | 24.30332 | 114.62395 | 36082 ft | 428 kts | 277° |
| 2026-05-06 11:58 | 24.30892 | 114.55900 | 36089 ft | 428 kts | 276° |
| 2026-05-06 11:59 | 24.31445 | 114.49396 | 36091 ft | 428 kts | 276° |
| 2026-05-06 11:59 | 24.32038 | 114.42903 | 36091 ft | 428 kts | 277° |
| 2026-05-06 12:00 | 24.32664 | 114.36398 | 36095 ft | 429 kts | 277° |
| 2026-05-06 12:00 | 24.33275 | 114.29903 | 36088 ft | 428 kts | 277° |
| 2026-05-06 12:01 | 24.33871 | 114.23410 | 36095 ft | 428 kts | 277° |
| 2026-05-06 12:01 | 24.34468 | 114.16916 | 36102 ft | 428 kts | 277° |
| 2026-05-06 12:02 | 24.35067 | 114.10428 | 36099 ft | 428 kts | 277° |
| 2026-05-06 12:02 | 24.35726 | 114.03942 | 36099 ft | 427 kts | 277° |
| 2026-05-06 12:03 | 24.36433 | 113.97502 | 36097 ft | 427 kts | 278° |
| 2026-05-06 12:03 | 24.37129 | 113.91035 | 36093 ft | 426 kts | 277° |
| 2026-05-06 12:04 | 24.37802 | 113.84581 | 36085 ft | 426 kts | 277° |
| 2026-05-06 12:04 | 24.38469 | 113.78117 | 36084 ft | 426 kts | 277° |
| 2026-05-06 12:05 | 24.39132 | 113.71659 | 36080 ft | 426 kts | 277° |
| 2026-05-06 12:05 | 24.39799 | 113.65199 | 36081 ft | 426 kts | 277° |
| 2026-05-06 12:06 | 24.40458 | 113.58748 | 36079 ft | 426 kts | 277° |
| 2026-05-06 12:06 | 24.41118 | 113.52284 | 36075 ft | 426 kts | 277° |
| 2026-05-06 12:07 | 24.41775 | 113.45828 | 36073 ft | 426 kts | 277° |
| 2026-05-06 12:07 | 24.42427 | 113.39369 | 36073 ft | 426 kts | 277° |
| 2026-05-06 12:08 | 24.43094 | 113.32942 | 36073 ft | 426 kts | 277° |
| 2026-05-06 12:08 | 24.43767 | 113.26481 | 36071 ft | 427 kts | 276° |
| 2026-05-06 12:09 | 24.44425 | 113.20014 | 36070 ft | 426 kts | 276° |
| 2026-05-06 12:09 | 24.45087 | 113.13546 | 36070 ft | 427 kts | 276° |
| 2026-05-06 12:10 | 24.45751 | 113.07062 | 36074 ft | 427 kts | 276° |
| 2026-05-06 12:10 | 24.46399 | 113.00585 | 36073 ft | 427 kts | 276° |
| 2026-05-06 12:11 | 24.47044 | 112.94105 | 36077 ft | 427 kts | 276° |
| 2026-05-06 12:11 | 24.47691 | 112.87620 | 36076 ft | 427 kts | 276° |
| 2026-05-06 12:12 | 24.48339 | 112.81128 | 36079 ft | 427 kts | 276° |
| 2026-05-06 12:12 | 24.48975 | 112.74647 | 36074 ft | 427 kts | 276° |
| 2026-05-06 12:13 | 24.49609 | 112.68170 | 36072 ft | 427 kts | 276° |
| 2026-05-06 12:13 | 24.50236 | 112.61729 | 36067 ft | 427 kts | 276° |
| 2026-05-06 12:14 | 24.50869 | 112.55249 | 36065 ft | 427 kts | 276° |
| 2026-05-06 12:14 | 24.51503 | 112.48772 | 36062 ft | 427 kts | 276° |
| 2026-05-06 12:15 | 24.52121 | 112.42297 | 36064 ft | 426 kts | 276° |
| 2026-05-06 12:15 | 24.52737 | 112.35818 | 36060 ft | 426 kts | 276° |
| 2026-05-06 12:16 | 24.53356 | 112.29356 | 36058 ft | 425 kts | 276° |
| 2026-05-06 12:16 | 24.53978 | 112.22901 | 36059 ft | 425 kts | 276° |
| 2026-05-06 12:17 | 24.54598 | 112.16450 | 36055 ft | 425 kts | 276° |
| 2026-05-06 12:17 | 24.55207 | 112.10000 | 36054 ft | 424 kts | 276° |
| 2026-05-06 12:18 | 24.55803 | 112.03557 | 36049 ft | 424 kts | 276° |
| 2026-05-06 12:18 | 24.56403 | 111.97106 | 36044 ft | 424 kts | 276° |
| 2026-05-06 12:19 | 24.57006 | 111.90709 | 36044 ft | 424 kts | 276° |
| 2026-05-06 12:19 | 24.57605 | 111.84266 | 36038 ft | 424 kts | 276° |
| 2026-05-06 12:20 | 24.58204 | 111.77822 | 36035 ft | 424 kts | 276° |
| 2026-05-06 12:20 | 24.58795 | 111.71365 | 36033 ft | 424 kts | 276° |
| 2026-05-06 12:21 | 24.59387 | 111.64920 | 36030 ft | 424 kts | 276° |
| 2026-05-06 12:21 | 24.59980 | 111.58480 | 36020 ft | 424 kts | 276° |
| 2026-05-06 12:22 | 24.60559 | 111.52028 | 36015 ft | 424 kts | 276° |
| 2026-05-06 12:22 | 24.61142 | 111.45582 | 36020 ft | 424 kts | 276° |
| 2026-05-06 12:23 | 24.61726 | 111.39136 | 36018 ft | 424 kts | 276° |
| 2026-05-06 12:23 | 24.62304 | 111.32689 | 36021 ft | 424 kts | 276° |
| 2026-05-06 12:24 | 24.62875 | 111.26242 | 36022 ft | 424 kts | 276° |
| 2026-05-06 12:24 | 24.63434 | 111.19788 | 36020 ft | 423 kts | 276° |
| 2026-05-06 12:25 | 24.63981 | 111.13349 | 36020 ft | 423 kts | 276° |
| 2026-05-06 12:25 | 24.64526 | 111.06961 | 36021 ft | 423 kts | 276° |
| 2026-05-06 12:26 | 24.65076 | 111.00496 | 36013 ft | 422 kts | 276° |
| 2026-05-06 12:26 | 24.65621 | 110.94120 | 36013 ft | 422 kts | 276° |
| 2026-05-06 12:27 | 24.66166 | 110.87696 | 36006 ft | 421 kts | 276° |
| 2026-05-06 12:27 | 24.66888 | 110.81319 | 36000 ft | 420 kts | 285° |
| 2026-05-06 12:28 | 24.69361 | 110.75535 | 36000 ft | 422 kts | 304° |
| 2026-05-06 12:28 | 24.73457 | 110.70881 | 35991 ft | 425 kts | 313° |
| 2026-05-06 12:29 | 24.77744 | 110.66390 | 35983 ft | 425 kts | 313° |
| 2026-05-06 12:29 | 24.82007 | 110.61884 | 35981 ft | 425 kts | 313° |
| 2026-05-06 12:30 | 24.86269 | 110.57377 | 35978 ft | 425 kts | 313° |
| 2026-05-06 12:30 | 24.90537 | 110.52875 | 35977 ft | 425 kts | 313° |
| 2026-05-06 12:31 | 24.94808 | 110.48374 | 35980 ft | 425 kts | 313° |
| 2026-05-06 12:31 | 24.99053 | 110.43887 | 35980 ft | 425 kts | 313° |
| 2026-05-06 12:32 | 25.03313 | 110.39370 | 35981 ft | 425 kts | 313° |
| 2026-05-06 12:32 | 25.07583 | 110.34855 | 35977 ft | 425 kts | 313° |
| 2026-05-06 12:33 | 25.11853 | 110.30348 | 35978 ft | 425 kts | 313° |
| 2026-05-06 12:33 | 25.16121 | 110.25842 | 35970 ft | 425 kts | 313° |
| 2026-05-06 12:34 | 25.20381 | 110.21326 | 35973 ft | 425 kts | 312° |
| 2026-05-06 12:34 | 25.24664 | 110.16819 | 35973 ft | 425 kts | 313° |
| 2026-05-06 12:35 | 25.28958 | 110.12343 | 35975 ft | 424 kts | 313° |
| 2026-05-06 12:35 | 25.33248 | 110.07863 | 35976 ft | 424 kts | 313° |
| 2026-05-06 12:36 | 25.37534 | 110.03361 | 35980 ft | 424 kts | 313° |
| 2026-05-06 12:36 | 25.41773 | 109.98896 | 35984 ft | 425 kts | 313° |
| 2026-05-06 12:37 | 25.46060 | 109.94391 | 35989 ft | 424 kts | 313° |
| 2026-05-06 12:37 | 25.50335 | 109.89894 | 35989 ft | 424 kts | 312° |
| 2026-05-06 12:38 | 25.54597 | 109.85389 | 35985 ft | 424 kts | 312° |
| 2026-05-06 12:38 | 25.58860 | 109.80888 | 35985 ft | 423 kts | 312° |
| 2026-05-06 12:39 | 25.62435 | 109.77121 | 35987 ft | 423 kts | 312° |
| 2026-05-06 12:39 | 25.66688 | 109.72627 | 35986 ft | 422 kts | 312° |
| 2026-05-06 12:40 | 25.70913 | 109.68159 | 35984 ft | 422 kts | 312° |
| 2026-05-06 12:40 | 25.75131 | 109.63657 | 35982 ft | 419 kts | 309° |
| 2026-05-06 12:41 | 25.78276 | 109.58336 | 35973 ft | 411 kts | 290° |
| 2026-05-06 12:41 | 25.79959 | 109.52300 | 35967 ft | 410 kts | 285° |
| 2026-05-06 12:42 | 25.81558 | 109.46224 | 35966 ft | 410 kts | 285° |
| 2026-05-06 12:42 | 25.83164 | 109.40158 | 35964 ft | 410 kts | 285° |
| 2026-05-06 12:43 | 25.84764 | 109.34088 | 35970 ft | 410 kts | 285° |
| 2026-05-06 12:43 | 25.86356 | 109.28014 | 35969 ft | 410 kts | 285° |
| 2026-05-06 12:44 | 25.87948 | 109.21934 | 35972 ft | 410 kts | 285° |
| 2026-05-06 12:44 | 25.89530 | 109.15861 | 35973 ft | 410 kts | 285° |
| 2026-05-06 12:45 | 25.91110 | 109.09787 | 35975 ft | 409 kts | 285° |
| 2026-05-06 12:46 | 25.93482 | 109.00726 | 35965 ft | 409 kts | 285° |
| 2026-05-06 12:46 | 25.95099 | 108.94674 | 35960 ft | 409 kts | 285° |
| 2026-05-06 12:47 | 25.96709 | 108.88615 | 35962 ft | 409 kts | 285° |
| 2026-05-06 12:47 | 25.98316 | 108.82547 | 35968 ft | 410 kts | 285° |
| 2026-05-06 12:48 | 25.99924 | 108.76467 | 35961 ft | 409 kts | 285° |
| 2026-05-06 12:48 | 26.01531 | 108.70391 | 35966 ft | 410 kts | 285° |
| 2026-05-06 12:49 | 26.03150 | 108.64310 | 35963 ft | 410 kts | 285° |
| 2026-05-06 12:49 | 26.04769 | 108.58217 | 35976 ft | 410 kts | 285° |
| 2026-05-06 12:50 | 26.06389 | 108.52131 | 35977 ft | 411 kts | 285° |
| 2026-05-06 12:50 | 26.07998 | 108.46037 | 35983 ft | 411 kts | 285° |
| 2026-05-06 12:51 | 26.09639 | 108.39950 | 35968 ft | 411 kts | 289° |
| 2026-05-06 12:51 | 26.12070 | 108.34165 | 35976 ft | 413 kts | 294° |
| 2026-05-06 12:52 | 26.14567 | 108.28416 | 35974 ft | 413 kts | 294° |
| 2026-05-06 12:52 | 26.17061 | 108.22661 | 35969 ft | 413 kts | 294° |
| 2026-05-06 12:53 | 26.19556 | 108.16897 | 35972 ft | 414 kts | 294° |
| 2026-05-06 12:53 | 26.22049 | 108.11111 | 35969 ft | 414 kts | 294° |
| 2026-05-06 12:54 | 26.24518 | 108.05367 | 35965 ft | 414 kts | 294° |
| 2026-05-06 12:54 | 26.27007 | 107.99578 | 35974 ft | 415 kts | 294° |
| 2026-05-06 12:55 | 26.29494 | 107.93777 | 35988 ft | 415 kts | 294° |
| 2026-05-06 12:55 | 26.31986 | 107.87975 | 35983 ft | 415 kts | 294° |
| 2026-05-06 12:56 | 26.34484 | 107.82165 | 35967 ft | 415 kts | 294° |
| 2026-05-06 12:56 | 26.36966 | 107.76360 | 35968 ft | 415 kts | 294° |
| 2026-05-06 12:57 | 26.39446 | 107.70556 | 35969 ft | 415 kts | 295° |
| 2026-05-06 12:57 | 26.41923 | 107.64750 | 35966 ft | 415 kts | 295° |
| 2026-05-06 12:58 | 26.44405 | 107.58934 | 35964 ft | 415 kts | 295° |
| 2026-05-06 12:58 | 26.46878 | 107.53118 | 35964 ft | 415 kts | 294° |
| 2026-05-06 12:59 | 26.49347 | 107.47297 | 35975 ft | 415 kts | 294° |
| 2026-05-06 12:59 | 26.51812 | 107.41470 | 35977 ft | 415 kts | 294° |
| 2026-05-06 13:00 | 26.54279 | 107.35630 | 35975 ft | 415 kts | 294° |
| 2026-05-06 13:00 | 26.56749 | 107.29803 | 35977 ft | 415 kts | 294° |
| 2026-05-06 13:01 | 26.59219 | 107.23976 | 35976 ft | 415 kts | 294° |
| 2026-05-06 13:01 | 26.61552 | 107.18088 | 35976 ft | 414 kts | 285° |
| 2026-05-06 13:02 | 26.62162 | 107.11762 | 35983 ft | 415 kts | 265° |
| 2026-05-06 13:02 | 26.60739 | 107.05493 | 35982 ft | 419 kts | 254° |
| 2026-05-06 13:03 | 26.58927 | 106.99284 | 35987 ft | 421 kts | 254° |
| 2026-05-06 13:03 | 26.57111 | 106.93046 | 35992 ft | 423 kts | 253° |
| 2026-05-06 13:04 | 26.55282 | 106.86781 | 35995 ft | 424 kts | 253° |
| 2026-05-06 13:04 | 26.53448 | 106.80514 | 36006 ft | 425 kts | 254° |
| 2026-05-06 13:05 | 26.51606 | 106.74249 | 36017 ft | 425 kts | 253° |
| 2026-05-06 13:05 | 26.49760 | 106.67993 | 36024 ft | 424 kts | 254° |
| 2026-05-06 13:06 | 26.47913 | 106.61737 | 36029 ft | 423 kts | 254° |
| 2026-05-06 13:06 | 26.46072 | 106.55502 | 36030 ft | 423 kts | 253° |
| 2026-05-06 13:07 | 26.44226 | 106.49278 | 36030 ft | 422 kts | 253° |
| 2026-05-06 13:07 | 26.42381 | 106.43064 | 36030 ft | 422 kts | 253° |
| 2026-05-06 13:08 | 26.40532 | 106.36860 | 36031 ft | 421 kts | 253° |
| 2026-05-06 13:08 | 26.38684 | 106.30656 | 36030 ft | 421 kts | 253° |
| 2026-05-06 13:09 | 26.36844 | 106.24469 | 36029 ft | 420 kts | 253° |
| 2026-05-06 13:09 | 26.35006 | 106.18305 | 36027 ft | 420 kts | 253° |
| 2026-05-06 13:10 | 26.33894 | 106.11966 | 36023 ft | 417 kts | 264° |
| 2026-05-06 13:10 | 26.33218 | 106.05545 | 36019 ft | 417 kts | 264° |
| 2026-05-06 13:11 | 26.32524 | 105.99126 | 36012 ft | 417 kts | 264° |
| 2026-05-06 13:11 | 26.31830 | 105.92706 | 36010 ft | 417 kts | 264° |
| 2026-05-06 13:12 | 26.31138 | 105.86299 | 36008 ft | 417 kts | 264° |
| 2026-05-06 13:12 | 26.30430 | 105.79873 | 36004 ft | 417 kts | 264° |
| 2026-05-06 13:13 | 26.29719 | 105.73461 | 36001 ft | 417 kts | 264° |
| 2026-05-06 13:13 | 26.29019 | 105.67090 | 35999 ft | 417 kts | 264° |
| 2026-05-06 13:14 | 26.28316 | 105.60682 | 35998 ft | 417 kts | 264° |
| 2026-05-06 13:14 | 26.27610 | 105.54270 | 35999 ft | 416 kts | 264° |
| 2026-05-06 13:15 | 26.26901 | 105.47880 | 35998 ft | 416 kts | 264° |
| 2026-05-06 13:15 | 26.26188 | 105.41492 | 35994 ft | 415 kts | 264° |
| 2026-05-06 13:16 | 26.25469 | 105.35129 | 35995 ft | 414 kts | 264° |
| 2026-05-06 13:16 | 26.24753 | 105.28774 | 35995 ft | 413 kts | 264° |
| 2026-05-06 13:17 | 26.24044 | 105.22423 | 35994 ft | 412 kts | 264° |
| 2026-05-06 13:17 | 26.23323 | 105.16084 | 35994 ft | 412 kts | 264° |
| 2026-05-06 13:18 | 26.22598 | 105.09766 | 35987 ft | 412 kts | 264° |
| 2026-05-06 13:18 | 26.21879 | 105.03437 | 36000 ft | 412 kts | 263° |
| 2026-05-06 13:19 | 26.21161 | 104.97155 | 36004 ft | 411 kts | 264° |
| 2026-05-06 13:19 | 26.20437 | 104.90863 | 35988 ft | 408 kts | 264° |
| 2026-05-06 13:20 | 26.19706 | 104.84581 | 35999 ft | 409 kts | 264° |
| 2026-05-06 13:20 | 26.18970 | 104.78296 | 36011 ft | 410 kts | 263° |
| 2026-05-06 13:21 | 26.18236 | 104.72007 | 36017 ft | 409 kts | 264° |
| 2026-05-06 13:21 | 26.17496 | 104.65726 | 36030 ft | 409 kts | 264° |
| 2026-05-06 13:22 | 26.16757 | 104.59442 | 36031 ft | 409 kts | 264° |
| 2026-05-06 13:22 | 26.16016 | 104.53170 | 36039 ft | 409 kts | 264° |
| 2026-05-06 13:23 | 26.15272 | 104.46909 | 36046 ft | 407 kts | 263° |
| 2026-05-06 13:23 | 26.14526 | 104.40659 | 36047 ft | 407 kts | 263° |
| 2026-05-06 13:24 | 26.12972 | 104.34588 | 36061 ft | 410 kts | 251° |
| 2026-05-06 13:24 | 26.10937 | 104.28708 | 36065 ft | 410 kts | 252° |
| 2026-05-06 13:25 | 26.08888 | 104.22788 | 36076 ft | 410 kts | 252° |
| 2026-05-06 13:25 | 26.06838 | 104.16864 | 36077 ft | 410 kts | 252° |
| 2026-05-06 13:26 | 26.04785 | 104.10939 | 36083 ft | 410 kts | 252° |
| 2026-05-06 13:26 | 26.02735 | 104.05029 | 36091 ft | 410 kts | 251° |
| 2026-05-06 13:27 | 26.00680 | 103.99120 | 35789 ft | 408 kts | 251° |
| 2026-05-06 13:27 | 25.99651 | 103.96177 | 35069 ft | 409 kts | 251° |
| 2026-05-06 13:27 | 25.98620 | 103.93222 | 34327 ft | 412 kts | 251° |
| 2026-05-06 13:27 | 25.97504 | 103.90279 | 33501 ft | 416 kts | 245° |
| 2026-05-06 13:28 | 25.96001 | 103.87513 | 32644 ft | 421 kts | 239° |
| 2026-05-06 13:28 | 25.94334 | 103.84821 | 31747 ft | 424 kts | 239° |
| 2026-05-06 13:28 | 25.92657 | 103.82111 | 30849 ft | 427 kts | 238° |
| 2026-05-06 13:28 | 25.90965 | 103.79380 | 29966 ft | 430 kts | 238° |
| 2026-05-06 13:29 | 25.89451 | 103.76522 | 28924 ft | 430 kts | 247° |
| 2026-05-06 13:29 | 25.88481 | 103.73412 | 28355 ft | 420 kts | 258° |
| 2026-05-06 13:29 | 25.88047 | 103.70268 | 28034 ft | 407 kts | 266° |
| 2026-05-06 13:29 | 25.88049 | 103.67151 | 27544 ft | 401 kts | 271° |
| 2026-05-06 13:30 | 25.88131 | 103.64091 | 27059 ft | 394 kts | 271° |
| 2026-05-06 13:30 | 25.88188 | 103.62080 | 26741 ft | 391 kts | 271° |
| 2026-05-06 13:30 | 25.88275 | 103.59077 | 26270 ft | 388 kts | 271° |
| 2026-05-06 13:30 | 25.88362 | 103.56090 | 25808 ft | 386 kts | 271° |
| 2026-05-06 13:31 | 25.88477 | 103.52170 | 25205 ft | 383 kts | 271° |
| 2026-05-06 13:31 | 25.88563 | 103.49228 | 24713 ft | 379 kts | 271° |
| 2026-05-06 13:31 | 25.88648 | 103.46313 | 24202 ft | 377 kts | 271° |
| 2026-05-06 13:31 | 25.88703 | 103.44348 | 23869 ft | 376 kts | 271° |
| 2026-05-06 13:32 | 25.88780 | 103.41459 | 23331 ft | 374 kts | 271° |
| 2026-05-06 13:32 | 25.88854 | 103.38587 | 22738 ft | 371 kts | 271° |
| 2026-05-06 13:32 | 25.88928 | 103.35729 | 22127 ft | 368 kts | 271° |
| 2026-05-06 13:32 | 25.89004 | 103.32894 | 21511 ft | 367 kts | 271° |
| 2026-05-06 13:33 | 25.89079 | 103.30096 | 20930 ft | 367 kts | 272° |
| 2026-05-06 13:33 | 25.89154 | 103.27264 | 20331 ft | 368 kts | 272° |
| 2026-05-06 13:33 | 25.89229 | 103.24424 | 19743 ft | 367 kts | 271° |
| 2026-05-06 13:33 | 25.89305 | 103.21599 | 19178 ft | 365 kts | 272° |
| 2026-05-06 13:34 | 25.89380 | 103.18784 | 18619 ft | 364 kts | 272° |
| 2026-05-06 13:34 | 25.89455 | 103.15970 | 18028 ft | 365 kts | 272° |
| 2026-05-06 13:34 | 25.89528 | 103.13148 | 17399 ft | 366 kts | 272° |
| 2026-05-06 13:34 | 25.89595 | 103.10321 | 16776 ft | 366 kts | 271° |
| 2026-05-06 13:35 | 25.89456 | 103.07502 | 16170 ft | 366 kts | 266° |
| 2026-05-06 13:35 | 25.89211 | 103.04684 | 15574 ft | 367 kts | 264° |
| 2026-05-06 13:35 | 25.88918 | 103.01861 | 14995 ft | 368 kts | 264° |
| 2026-05-06 13:35 | 25.88460 | 102.99066 | 14415 ft | 369 kts | 253° |
| 2026-05-06 13:36 | 25.87333 | 102.96509 | 13877 ft | 371 kts | 236° |
| 2026-05-06 13:36 | 25.85535 | 102.94462 | 13302 ft | 372 kts | 217° |
| 2026-05-06 13:36 | 25.83222 | 102.93174 | 12734 ft | 374 kts | 198° |
| 2026-05-06 13:36 | 25.80650 | 102.92808 | 12205 ft | 375 kts | 179° |
| 2026-05-06 13:37 | 25.78133 | 102.93413 | 12002 ft | 366 kts | 160° |
| 2026-05-06 13:37 | 25.75888 | 102.94617 | 11992 ft | 353 kts | 155° |
| 2026-05-06 13:37 | 25.73717 | 102.95829 | 12002 ft | 343 kts | 155° |
| 2026-05-06 13:37 | 25.71632 | 102.96990 | 12003 ft | 327 kts | 155° |
| 2026-05-06 13:38 | 25.69637 | 102.98097 | 12006 ft | 315 kts | 155° |
| 2026-05-06 13:38 | 25.67693 | 102.99176 | 12007 ft | 312 kts | 155° |
| 2026-05-06 13:38 | 25.65748 | 103.00254 | 12009 ft | 312 kts | 155° |
| 2026-05-06 13:38 | 25.63805 | 103.01334 | 12014 ft | 313 kts | 155° |
| 2026-05-06 13:39 | 25.61860 | 103.02417 | 12013 ft | 314 kts | 155° |
| 2026-05-06 13:39 | 25.59909 | 103.03504 | 12018 ft | 313 kts | 155° |
| 2026-05-06 13:39 | 25.57962 | 103.04587 | 12018 ft | 312 kts | 155° |
| 2026-05-06 13:39 | 25.56030 | 103.05663 | 12020 ft | 312 kts | 155° |
| 2026-05-06 13:40 | 25.54085 | 103.06743 | 12020 ft | 312 kts | 155° |
| 2026-05-06 13:40 | 25.52150 | 103.07818 | 12019 ft | 309 kts | 156° |
| 2026-05-06 13:40 | 25.50271 | 103.08868 | 12016 ft | 296 kts | 154° |
| 2026-05-06 13:40 | 25.48642 | 103.10168 | 12018 ft | 284 kts | 137° |
| 2026-05-06 13:41 | 25.47394 | 103.11805 | 12022 ft | 274 kts | 130° |
| 2026-05-06 13:41 | 25.46235 | 103.13423 | 12028 ft | 271 kts | 130° |
| 2026-05-06 13:41 | 25.45046 | 103.15073 | 12021 ft | 271 kts | 130° |
| 2026-05-06 13:41 | 25.43888 | 103.16679 | 12016 ft | 270 kts | 130° |
| 2026-05-06 13:42 | 25.42546 | 103.18099 | 12015 ft | 266 kts | 151° |
| 2026-05-06 13:42 | 25.40846 | 103.18826 | 12019 ft | 261 kts | 175° |
| 2026-05-06 13:42 | 25.39058 | 103.18769 | 11939 ft | 257 kts | 197° |
| 2026-05-06 13:42 | 25.37456 | 103.17950 | 11544 ft | 256 kts | 219° |
| 2026-05-06 13:43 | 25.36057 | 103.16732 | 11194 ft | 256 kts | 221° |
| 2026-05-06 13:43 | 25.34673 | 103.15510 | 10985 ft | 252 kts | 221° |
| 2026-05-06 13:43 | 25.33316 | 103.14320 | 10798 ft | 247 kts | 221° |
| 2026-05-06 13:43 | 25.31982 | 103.13154 | 10616 ft | 242 kts | 221° |
| 2026-05-06 13:44 | 25.30673 | 103.12010 | 10431 ft | 237 kts | 221° |
| 2026-05-06 13:44 | 25.29391 | 103.10889 | 10245 ft | 233 kts | 221° |
| 2026-05-06 13:44 | 25.28135 | 103.09790 | 10067 ft | 229 kts | 221° |
| 2026-05-06 13:44 | 25.26895 | 103.08707 | 9878 ft | 225 kts | 221° |
| 2026-05-06 13:45 | 25.25676 | 103.07642 | 9674 ft | 221 kts | 221° |
| 2026-05-06 13:45 | 25.23299 | 103.05566 | 9277 ft | 214 kts | 220° |
| 2026-05-06 13:45 | 25.22136 | 103.04551 | 9073 ft | 212 kts | 220° |
| 2026-05-06 13:46 | 25.20984 | 103.03545 | 8882 ft | 211 kts | 221° |
| 2026-05-06 13:46 | 25.19837 | 103.02545 | 8741 ft | 209 kts | 220° |
| 2026-05-06 13:46 | 25.18688 | 103.01542 | 8573 ft | 211 kts | 220° |
| 2026-05-06 13:46 | 25.17563 | 103.00562 | 8337 ft | 205 kts | 220° |
| 2026-05-06 13:47 | 25.16469 | 102.99609 | 8104 ft | 190 kts | 220° |
| 2026-05-06 13:47 | 25.15476 | 102.98743 | 7876 ft | 174 kts | 220° |
| 2026-05-06 13:47 | 25.14575 | 102.97958 | 7627 ft | 160 kts | 220° |
| 2026-05-06 13:47 | 25.13732 | 102.97224 | 7406 ft | 154 kts | 217° |
| 2026-05-06 13:48 | 25.12906 | 102.96500 | 7215 ft | 154 kts | 218° |
| 2026-05-06 13:48 | 25.12076 | 102.95770 | 7001 ft | 152 kts | 218° |
| 2026-05-06 13:48 | 25.11256 | 102.95061 | 6912 ft | 145 kts | 218° |
| 2026-05-06 13:48 | 25.10601 | 102.94502 | 6891 ft | 112 kts | 219° |
| 2026-05-06 13:49 | 25.10134 | 102.94081 | 6894 ft | 63 kts | 218° |
| 2026-05-06 13:49 | 25.09925 | 102.93902 | 6893 ft | 19 kts | 218° |
| 2026-05-06 13:49 | 25.09827 | 102.93804 | 6892 ft | 20 kts | 228° |
| 2026-05-06 13:49 | 25.09752 | 102.93682 | 6893 ft | 14 kts | 242° |
| 2026-05-06 13:50 | 25.09725 | 102.93625 | 6894 ft | 8 kts | 243° |
| 2026-05-06 13:50 | 25.09700 | 102.93567 | 6895 ft | 9 kts | 245° |
| 2026-05-06 13:50 | 25.09679 | 102.93498 | 6895 ft | 11 kts | 260° |
| 2026-05-06 13:50 | 25.09716 | 102.93405 | 6895 ft | 16 kts | 308° |
| 2026-05-06 13:51 | 25.09791 | 102.93303 | 6896 ft | 13 kts | 309° |
| 2026-05-06 13:51 | 25.09859 | 102.93211 | 6897 ft | 18 kts | 309° |
| 2026-05-06 13:51 | 25.09939 | 102.93100 | 6898 ft | 14 kts | 308° |
| 2026-05-06 13:51 | 25.09995 | 102.93044 | 6899 ft | 5 kts | 326° |
| 2026-05-06 13:52 | 25.10045 | 102.93028 | 6899 ft | 10 kts | 355° |
| 2026-05-06 13:52 | 25.10127 | 102.93062 | 6899 ft | 16 kts | 39° |
| 2026-05-06 13:52 | 25.10173 | 102.93162 | 6898 ft | 17 kts | 83° |
| 2026-05-06 13:52 | 25.10157 | 102.93268 | 6897 ft | 15 kts | 100° |
| 2026-05-06 13:53 | 25.10156 | 102.93322 | 6896 ft | 3 kts | 43° |
| 2026-05-06 13:53 | 25.10183 | 102.93331 | 6896 ft | 5 kts | 16° |
| 2026-05-06 13:53 | 25.10215 | 102.93339 | 6897 ft | 3 kts | 13° |
| 2026-05-06 13:53 | 25.10218 | 102.93340 | 6896 ft | 0 kts | 13° |